Time;durP1;ratioP1;P1;durP2;ratioP2;P2;SDS_P1;SDS_P2;PMS_P1;PMS_P2;Temp;Humidity;BMP_temperature;BMP_pressure;BME280_temperature;BME280_humidity;BME280_pressure;Samples;Min_cycle;Max_cycle;Signal;HPM_P1;HPM_P2
2023/06/22 00:00:21;;;;;;;11.20;5.10;;;;;;;19.98;66.45;99621.18;79783;1292;3013364;-75
2023/06/22 00:02:49;;;;;;;7.30;5.00;;;;;;;19.99;66.05;99623.73;78536;1291;3050389;-72
2023/06/22 00:05:15;;;;;;;6.60;5.10;;;;;;;19.94;65.73;99625.94;79788;1297;3018061;-76
2023/06/22 00:07:43;;;;;;;9.40;5.00;;;;;;;19.88;65.85;99624.77;79830;1297;3011598;-75
2023/06/22 00:10:11;;;;;;;7.60;4.70;;;;;;;19.90;65.09;99624.33;78572;1292;3052530;-75
2023/06/22 00:12:38;;;;;;;7.90;4.90;;;;;;;19.91;64.56;99626.58;79715;1292;3013355;-74
2023/06/22 00:15:05;;;;;;;7.50;4.60;;;;;;;19.87;64.64;99626.43;79778;1297;3011609;-74
2023/06/22 00:17:33;;;;;;;9.10;4.90;;;;;;;19.86;64.67;99628.20;78468;1297;3027175;-75
2023/06/22 00:20:00;;;;;;;8.30;5.30;;;;;;;19.83;65.04;99628.78;79757;1294;3013345;-74
2023/06/22 00:22:29;;;;;;;7.60;4.70;;;;;;;19.83;64.91;99631.81;79685;1296;3011934;-74
2023/06/22 00:24:57;;;;;;;7.60;5.00;;;;;;;19.82;64.61;99626.00;78507;1296;3051401;-74
2023/06/22 00:27:25;;;;;;;9.20;5.40;;;;;;;19.81;64.41;99632.20;79764;1292;3013667;-76
2023/06/22 00:29:52;;;;;;;10.70;5.80;;;;;;;19.81;64.05;99627.71;79693;1292;3011478;-72
2023/06/22 00:32:19;;;;;;;8.70;5.40;;;;;;;19.77;64.16;99625.02;78518;1293;3050909;-74
2023/06/22 00:34:50;;;;;;;9.00;5.70;;;;;;;19.73;64.36;99627.40;79781;1293;3011521;-73
2023/06/22 00:37:19;;;;;;;9.50;4.90;;;;;;;19.68;64.62;99634.16;79346;1294;3011741;-74
2023/06/22 00:39:45;;;;;;;11.30;5.40;;;;;;;19.60;64.83;99632.04;79732;1296;3013782;-76
2023/06/22 00:42:12;;;;;;;8.70;5.10;;;;;;;19.58;64.90;99632.36;79748;1292;3011786;-77
2023/06/22 00:44:40;;;;;;;6.40;4.90;;;;;;;19.57;65.19;99630.03;78599;1292;3028237;-74
2023/06/22 00:47:07;;;;;;;7.40;5.00;;;;;;;19.54;65.39;99633.69;79888;1292;3014257;-77
2023/06/22 00:49:34;;;;;;;8.70;5.40;;;;;;;19.52;65.04;99631.52;79816;1292;3011650;-75
2023/06/22 00:52:02;;;;;;;12.40;5.20;;;;;;;19.48;65.12;99631.61;78450;1294;3052120;-74
2023/06/22 00:54:29;;;;;;;10.70;5.10;;;;;;;19.40;65.16;99631.05;79690;1292;3012934;-75
2023/06/22 00:56:57;;;;;;;7.40;5.40;;;;;;;19.40;65.15;99626.67;79763;1297;3011698;-73
2023/06/22 00:59:26;;;;;;;9.70;5.00;;;;;;;19.35;65.39;99621.46;78380;1297;3049247;-75
2023/06/22 01:01:52;;;;;;;8.30;5.10;;;;;;;19.28;65.34;99619.58;79489;1292;3012785;-77
2023/06/22 01:04:19;;;;;;;7.20;4.50;;;;;;;19.26;65.58;99621.61;79639;1292;3011539;-75
2023/06/22 01:07:20;;;;;;;7.60;5.10;;;;;;;19.24;65.64;99619.67;78541;1292;3051115;-74
2023/06/22 01:10:02;;;;;;;9.50;4.70;;;;;;;19.18;65.76;99622.66;78358;1295;3069454;-74
2023/06/22 01:12:33;;;;;;;8.70;5.00;;;;;;;19.13;66.18;99631.52;78461;1296;3052036;-75
2023/06/22 01:15:12;;;;;;;7.90;4.80;;;;;;;19.13;66.00;99628.83;79746;1297;3011471;-75
2023/06/22 01:17:41;;;;;;;9.80;4.60;;;;;;;19.14;65.85;99629.86;78311;1294;3048805;-74
2023/06/22 01:20:11;;;;;;;9.60;4.30;;;;;;;19.14;65.74;99633.90;79656;1297;3011780;-75
2023/06/22 01:22:49;;;;;;;9.20;4.90;;;;;;;19.14;65.81;99629.44;78302;1297;3025679;-74
2023/06/22 01:25:45;;;;;;;7.10;4.80;;;;;;;19.12;65.41;99634.80;78462;1294;3052048;-76
2023/06/22 01:28:38;;;;;;;11.40;4.50;;;;;;;19.10;65.25;99636.59;78498;1297;3052230;-74
2023/06/22 01:31:08;;;;;;;9.10;4.80;;;;;;;19.04;65.32;99635.70;78502;1292;3069512;-74
2023/06/22 01:33:37;;;;;;;9.50;5.10;;;;;;;19.05;65.38;99636.20;79561;1297;3011840;-76
2023/06/22 01:36:05;;;;;;;13.00;5.00;;;;;;;19.02;65.66;99633.61;78438;1292;3056265;-74
2023/06/22 01:38:32;;;;;;;8.80;4.80;;;;;;;18.99;65.71;99639.39;79640;1292;3013022;-73
2023/06/22 01:40:58;;;;;;;8.70;5.00;;;;;;;18.93;66.13;99642.04;79481;1292;3013284;-75
2023/06/22 01:43:26;;;;;;;14.80;4.80;;;;;;;18.92;66.14;99643.38;78472;1294;3028135;-74
2023/06/22 01:45:55;;;;;;;7.90;4.60;;;;;;;18.91;65.90;99647.88;79740;1296;3013026;-72
2023/06/22 01:48:22;;;;;;;7.00;4.40;;;;;;;18.88;66.14;99652.44;79781;1292;3011580;-75
2023/06/22 01:50:50;;;;;;;8.50;5.00;;;;;;;18.87;66.41;99653.08;78511;1292;3057292;-74
2023/06/22 01:53:17;;;;;;;9.80;5.10;;;;;;;18.83;66.67;99653.52;79646;1292;3013494;-74
2023/06/22 01:55:45;;;;;;;11.20;4.70;;;;;;;18.76;67.23;99653.14;79562;1292;3011825;-74
2023/06/22 01:58:13;;;;;;;8.40;4.70;;;;;;;18.75;67.07;99653.65;78412;1298;3053961;-75
2023/06/22 02:00:41;;;;;;;9.80;5.20;;;;;;;18.72;67.53;99652.95;79683;1297;3013421;-78
2023/06/22 02:03:10;;;;;;;10.50;5.40;;;;;;;18.71;67.46;99655.92;79632;1294;3011640;-75
2023/06/22 02:05:42;;;;;;;7.70;5.00;;;;;;;18.70;67.49;99660.83;78468;1292;3058607;-75
2023/06/22 02:08:16;;;;;;;6.20;4.60;;;;;;;18.69;67.75;99661.79;79875;1292;3011509;-75
2023/06/22 02:10:44;;;;;;;9.20;4.90;;;;;;;18.69;67.18;99663.61;78371;1292;3054925;-76
2023/06/22 02:13:11;;;;;;;9.60;5.00;;;;;;;18.68;67.06;99670.23;79593;1294;3012967;-72
2023/06/22 02:15:38;;;;;;;10.20;4.60;;;;;;;18.63;66.83;99671.32;79560;1295;3013693;-76
2023/06/22 02:18:06;;;;;;;12.10;4.70;;;;;;;18.68;66.63;99670.02;78518;1295;3028281;-75
2023/06/22 02:20:32;;;;;;;11.80;5.10;;;;;;;18.76;66.24;99675.11;79598;1294;3013208;-74
2023/06/22 02:22:59;;;;;;;7.30;4.60;;;;;;;18.81;66.32;99670.15;79420;1295;3011616;-76
2023/06/22 02:25:27;;;;;;;6.90;4.60;;;;;;;18.79;65.82;99675.76;78401;1294;3025959;-74
2023/06/22 02:27:54;;;;;;;10.30;4.80;;;;;;;18.77;65.74;99671.35;79629;1297;3012853;-74
2023/06/22 02:30:22;;;;;;;8.20;5.00;;;;;;;18.78;66.09;99673.06;79481;1295;3011452;-74
2023/06/22 02:32:58;;;;;;;7.80;4.80;;;;;;;18.75;66.17;99678.23;78476;1297;3069088;-74
2023/06/22 02:35:31;;;;;;;6.80;4.40;;;;;;;18.76;66.43;99683.52;79105;1293;3011947;-75
2023/06/22 02:37:59;;;;;;;;;;;;;;;18.75;66.13;99687.13;79684;1294;3011741;-74
2023/06/22 02:40:27;;;;;;;9.50;4.80;;;;;;;18.70;66.72;99683.04;78540;1298;3057254;-73
2023/06/22 02:42:58;;;;;;;9.00;5.10;;;;;;;18.69;66.82;99684.31;79655;1293;3013310;-74
2023/06/22 02:45:26;;;;;;;10.30;5.40;;;;;;;18.70;66.85;99686.91;78402;1297;3029896;-74
2023/06/22 02:47:53;;;;;;;9.40;4.90;;;;;;;18.76;66.54;99685.84;79649;1297;3013915;-73
2023/06/22 02:50:19;;;;;;;11.50;5.20;;;;;;;18.76;66.69;99689.01;79639;1297;3013033;-74
2023/06/22 02:52:47;;;;;;;10.70;5.10;;;;;;;18.72;66.42;99696.13;78466;1297;3068986;-74
2023/06/22 02:55:14;;;;;;;11.80;5.20;;;;;;;18.75;65.87;99702.56;79699;1293;3013983;-77
2023/06/22 02:57:44;;;;;;;6.60;4.50;;;;;;;18.78;65.53;99706.02;79543;1293;3011956;-75
2023/06/22 03:00:19;;;;;;;7.60;4.50;;;;;;;18.81;65.33;99712.53;78406;1294;3051359;-73
2023/06/22 03:02:48;;;;;;;9.40;5.10;;;;;;;18.84;65.10;99712.40;78588;1297;3050256;-73
2023/06/22 03:05:17;;;;;;;11.30;4.90;;;;;;;18.87;65.44;99711.95;79686;1297;3015777;-75
2023/06/22 03:07:47;;;;;;;8.90;4.70;;;;;;;18.91;65.26;99712.55;78436;1294;3069180;-76
2023/06/22 03:10:14;;;;;;;10.40;5.40;;;;;;;18.93;64.93;99714.63;79614;1294;3012813;-77
2023/06/22 03:12:42;;;;;;;10.80;5.20;;;;;;;18.96;64.83;99718.48;79493;1293;3011697;-76
2023/06/22 03:15:11;;;;;;;13.10;5.60;;;;;;;18.98;64.51;99717.95;78469;1297;3053837;-75
2023/06/22 03:17:39;;;;;;;8.10;4.90;;;;;;;19.00;64.50;99726.77;78005;1294;3058064;-73
2023/06/22 03:20:11;;;;;;;9.00;5.20;;;;;;;19.06;64.01;99727.16;79221;1294;3012971;-74
2023/06/22 03:22:38;;;;;;;13.20;6.60;;;;;;;19.08;64.38;99731.00;79702;1297;3011754;-74
2023/06/22 03:25:13;;;;;;;7.10;5.10;;;;;;;19.10;63.98;99735.08;79207;1297;3011911;-75
2023/06/22 03:27:41;;;;;;;11.40;4.60;;;;;;;19.13;64.02;99735.90;79583;1295;3011610;-75
2023/06/22 03:30:10;;;;;;;8.40;5.10;;;;;;;19.16;63.16;99735.59;78276;1295;3056652;-76
2023/06/22 03:32:37;;;;;;;8.60;5.40;;;;;;;19.20;63.13;99739.73;79656;1292;3012750;-75
2023/06/22 03:35:06;;;;;;;9.20;5.10;;;;;;;19.21;63.27;99742.96;79697;1292;3013442;-74
2023/06/22 03:37:35;;;;;;;9.80;5.30;;;;;;;19.26;63.24;99746.02;78532;1297;3052466;-74
2023/06/22 03:40:05;;;;;;;16.40;5.20;;;;;;;19.29;63.25;99747.90;79636;1294;3013078;-73
2023/06/22 03:42:35;;;;;;;8.40;4.90;;;;;;;19.36;63.09;99752.26;79308;1294;3011339;-72
2023/06/22 03:45:03;;;;;;;7.70;4.90;;;;;;;19.42;62.94;99749.89;79983;1292;3013292;-73
2023/06/22 03:47:33;;;;;;;9.30;5.10;;;;;;;19.42;62.30;99753.44;79043;1292;3011684;-75
2023/06/22 03:49:59;;;;;;;6.90;4.70;;;;;;;19.45;62.34;99757.45;79611;1297;3012977;-75
2023/06/22 03:52:26;;;;;;;14.10;5.00;;;;;;;19.47;61.80;99752.11;79718;1292;3013192;-73
2023/06/22 03:54:54;;;;;;;10.70;5.60;;;;;;;19.49;61.58;99753.34;78497;1295;3052582;-73
2023/06/22 03:57:20;;;;;;;10.10;5.20;;;;;;;19.55;61.27;99760.44;79935;1296;3013181;-73
2023/06/22 03:59:47;;;;;;;10.00;5.40;;;;;;;19.58;60.97;99761.93;79714;1292;3013205;-75
2023/06/22 04:02:15;;;;;;;11.80;5.50;;;;;;;19.60;61.25;99763.63;78489;1294;3024953;-72
2023/06/22 04:04:42;;;;;;;10.80;4.90;;;;;;;19.65;60.92;99766.27;79861;1292;3013406;-70
2023/06/22 04:07:08;;;;;;;11.70;5.30;;;;;;;19.74;60.40;99772.71;79933;1297;3011796;-71
2023/06/22 04:09:36;;;;;;;14.10;5.50;;;;;;;19.80;60.58;99776.05;78582;1297;3025545;-74
2023/06/22 04:12:03;;;;;;;12.30;5.80;;;;;;;19.84;60.35;99776.19;79968;1294;3013314;-74
2023/06/22 04:14:30;;;;;;;12.50;5.10;;;;;;;19.90;60.13;99783.12;79745;1295;3013430;-76
2023/06/22 04:16:58;;;;;;;10.60;5.40;;;;;;;19.96;60.09;99779.91;78555;1296;3026408;-75
2023/06/22 04:19:24;;;;;;;12.00;5.50;;;;;;;19.98;59.78;99782.88;79996;1292;3013615;-74
2023/06/22 04:21:51;;;;;;;12.90;5.30;;;;;;;20.04;59.51;99783.58;79815;1292;3011836;-77
2023/06/22 04:24:19;;;;;;;10.30;5.80;;;;;;;20.09;59.03;99791.31;78655;1297;3025195;-77
2023/06/22 04:26:46;;;;;;;10.80;5.50;;;;;;;20.14;59.14;99793.51;79782;1293;3018512;-76
2023/06/22 04:29:13;;;;;;;9.40;5.20;;;;;;;20.20;58.71;99790.62;79827;1295;3011557;-75
2023/06/22 04:31:41;;;;;;;14.60;5.70;;;;;;;20.22;58.02;99787.38;78406;1297;3057166;-74
2023/06/22 04:34:08;;;;;;;13.30;5.40;;;;;;;20.27;58.16;99786.70;79793;1292;3013279;-76
2023/06/22 04:36:39;;;;;;;12.60;5.70;;;;;;;20.32;58.11;99790.20;79756;1292;3013547;-76
2023/06/22 04:39:10;;;;;;;14.40;4.90;;;;;;;20.37;57.93;99791.09;78571;1297;3052725;-75
2023/06/22 04:41:43;;;;;;;16.50;5.60;;;;;;;20.45;57.64;99799.56;79777;1297;3011438;-74
2023/06/22 04:44:26;;;;;;;10.90;5.70;;;;;;;20.53;57.48;99800.22;78671;1292;3067697;-75
2023/06/22 04:46:59;;;;;;;11.90;4.80;;;;;;;20.57;57.64;99801.80;78642;1297;3052758;-77
2023/06/22 04:49:32;;;;;;;10.70;5.40;;;;;;;20.64;57.69;99800.21;79993;1292;3011792;-76
2023/06/22 04:52:01;;;;;;;9.20;5.20;;;;;;;20.69;57.42;99801.70;78799;1297;3050304;-76
2023/06/22 04:54:32;;;;;;;11.40;5.40;;;;;;;20.73;56.90;99806.27;79779;1293;3013024;-77
2023/06/22 04:57:09;;;;;;;7.40;4.70;;;;;;;20.80;56.77;99810.45;78497;1296;3049839;-75
2023/06/22 04:59:38;;;;;;;13.00;5.10;;;;;;;20.88;56.63;99810.94;78384;1298;3053538;-72
2023/06/22 05:02:05;;;;;;;14.40;5.60;;;;;;;20.93;56.31;99806.48;79883;1297;3011380;-74
2023/06/22 05:04:32;;;;;;;14.80;5.60;;;;;;;20.98;56.54;99811.87;79630;1292;3013953;-73
2023/06/22 05:07:01;;;;;;;24.00;6.00;;;;;;;21.08;56.58;99812.48;78517;1295;3057679;-73
2023/06/22 05:09:29;;;;;;;20.10;6.10;;;;;;;21.15;56.12;99812.02;80086;1295;3012888;-75
2023/06/22 05:11:59;;;;;;;14.40;6.10;;;;;;;21.23;55.87;99814.55;79787;1295;3011426;-74
2023/06/22 15:07:49;;;;;;;6.70;3.30;;;;;;;34.90;20.92;99729.38;80414;1304;3013285;-68
2023/06/22 15:10:16;;;;;;;4.80;2.90;;;;;;;34.83;20.70;99733.06;79544;1300;3014757;-64
2023/06/22 15:12:42;;;;;;;4.20;3.00;;;;;;;34.89;20.82;99736.13;79883;1300;3011739;-64
2023/06/22 15:15:10;;;;;;;4.80;2.80;;;;;;;34.94;20.55;99735.02;78542;1301;3052772;-68
2023/06/22 15:17:38;;;;;;;3.50;2.80;;;;;;;34.90;20.69;99737.67;79738;1304;3013240;-67
2023/06/22 15:20:05;;;;;;;4.90;2.70;;;;;;;35.04;20.59;99736.11;78044;1301;5649710;-66
2023/06/22 15:22:33;;;;;;;4.20;2.90;;;;;;;35.34;20.38;99740.29;78659;1299;3049175;-68
2023/06/22 15:25:00;;;;;;;5.10;3.20;;;;;;;35.29;20.37;99740.16;79685;1298;3012090;-67
2023/06/22 15:27:26;;;;;;;6.00;2.90;;;;;;;35.31;20.33;99743.23;79541;1299;3011842;-70
2023/06/22 15:29:54;;;;;;;4.10;2.70;;;;;;;35.43;20.14;99737.88;78361;1301;3029404;-72
2023/06/22 15:32:22;;;;;;;3.70;2.70;;;;;;;35.55;19.98;99738.64;79782;1298;3013010;-71
2023/06/22 15:34:51;;;;;;;3.90;2.60;;;;;;;35.69;19.83;99740.73;79668;1299;3012018;-73
2023/06/22 15:37:20;;;;;;;4.20;2.80;;;;;;;35.47;19.96;99738.69;78331;1301;3050220;-73
2023/06/22 15:39:47;;;;;;;4.00;2.90;;;;;;;35.42;20.13;99736.20;79970;1298;3012846;-76
2023/06/22 15:42:13;;;;;;;3.60;2.90;;;;;;;35.68;20.09;99734.17;79742;1299;3013035;-73
2023/06/22 15:44:41;;;;;;;8.20;2.80;;;;;;;35.75;19.87;99734.49;78891;1298;3026380;-70
2023/06/22 15:47:08;;;;;;;7.20;2.90;;;;;;;35.61;19.89;99736.86;79945;1294;3013083;-71
2023/06/22 15:49:35;;;;;;;3.10;2.70;;;;;;;35.77;19.93;99736.48;80065;1295;3011930;-70
2023/06/22 15:52:03;;;;;;;6.00;3.20;;;;;;;35.95;19.69;99731.25;78721;1295;3026940;-70
2023/06/22 15:54:29;;;;;;;3.80;3.00;;;;;;;36.07;19.54;99726.64;80221;1294;3012614;-69
2023/06/22 15:56:56;;;;;;;5.00;2.90;;;;;;;35.97;19.62;99726.41;80014;1294;3011992;-70
2023/06/22 15:59:24;;;;;;;4.40;2.90;;;;;;;35.75;19.85;99725.05;78854;1294;3026853;-69
2023/06/22 16:01:51;;;;;;;4.80;2.90;;;;;;;35.83;19.94;99722.90;79830;1294;3018647;-70
2023/06/22 16:04:17;;;;;;;6.80;3.00;;;;;;;35.85;19.87;99724.02;79655;1296;3013131;-70
2023/06/22 16:06:45;;;;;;;7.20;3.00;;;;;;;35.83;19.85;99726.23;78676;1294;3026792;-67
2023/06/22 16:09:13;;;;;;;4.20;3.10;;;;;;;35.84;19.85;99725.88;80000;1294;3013278;-68
2023/06/22 16:11:43;;;;;;;3.90;2.70;;;;;;;35.85;19.83;99728.29;79851;1295;3011817;-70
2023/06/22 16:14:10;;;;;;;5.30;3.00;;;;;;;35.71;20.07;99728.96;80272;1294;3011449;-65
2023/06/22 16:16:37;;;;;;;7.10;3.20;;;;;;;35.87;19.92;99730.11;80081;1298;3011975;-70
2023/06/22 16:19:04;;;;;;;3.60;2.70;;;;;;;35.66;19.91;99723.08;78777;1298;3026717;-69
2023/06/22 16:21:31;;;;;;;5.70;3.20;;;;;;;35.69;20.06;99725.44;80019;1296;3019166;-64
2023/06/22 16:23:58;;;;;;;6.20;3.00;;;;;;;35.71;20.15;99722.13;79885;1295;3011630;-71
2023/06/22 16:26:25;;;;;;;5.10;3.20;;;;;;;35.72;20.16;99721.49;78610;1298;3028832;-69
2023/06/22 16:28:52;;;;;;;3.90;3.20;;;;;;;35.51;20.48;99720.67;79854;1298;3012841;-69
2023/06/22 16:31:19;;;;;;;7.20;3.50;;;;;;;35.38;20.46;99720.38;79997;1295;3011425;-67
2023/06/22 16:33:49;;;;;;;7.80;2.70;;;;;;;35.29;20.67;99725.75;78641;1298;3028564;-65
2023/06/22 16:36:15;;;;;;;3.80;3.00;;;;;;;35.08;20.90;99723.90;79957;1294;3013033;-68
2023/06/22 16:38:43;;;;;;;5.00;2.90;;;;;;;35.06;20.93;99721.84;79834;1295;3011753;-71
2023/06/22 16:43:31;;;;;;;3.50;3.00;;;;;;;34.88;21.20;99724.21;80320;1300;3013164;-70
2023/06/22 16:45:59;;;;;;;5.90;3.00;;;;;;;34.33;21.65;99738.52;79370;1301;3018802;-77
2023/06/22 16:48:25;;;;;;;5.80;3.30;;;;;;;33.70;22.13;99739.48;79329;1302;3013529;-73
2023/06/22 16:50:53;;;;;;;3.90;3.10;;;;;;;33.24;22.82;99739.94;78143;1307;3027650;-72
2023/06/22 16:53:21;;;;;;;4.50;3.30;;;;;;;32.70;23.61;99736.05;79712;1302;3013215;-72
2023/06/22 16:55:52;;;;;;;5.40;3.20;;;;;;;32.28;24.24;99740.23;77251;1301;3013318;-73
2023/06/22 16:58:21;;;;;;;5.20;3.30;;;;;;;31.89;24.54;99742.48;79994;1298;3011870;-73
2023/06/22 17:00:53;;;;;;;4.20;3.20;;;;;;;31.54;25.21;99743.08;79163;1298;3027222;-74
2023/06/22 17:03:24;;;;;;;4.10;3.20;;;;;;;31.28;25.50;99743.08;79951;1298;3012222;-75
2023/06/22 17:05:56;;;;;;;4.20;3.10;;;;;;;30.94;26.04;99742.50;78660;1304;3049170;-69
2023/06/22 17:08:24;;;;;;;;;;;;;;;30.67;26.47;99748.60;79812;1298;3011550;-70
2023/06/22 17:10:52;;;;;;;5.80;3.40;;;;;;;30.30;27.18;99754.73;78540;1302;3053290;-67
2023/06/22 17:13:18;;;;;;;6.40;3.30;;;;;;;30.13;27.44;99756.89;79558;1301;3013615;-72
2023/06/22 17:15:45;;;;;;;6.20;3.70;;;;;;;29.99;27.72;99755.91;79568;1298;3011611;-73
2023/06/22 17:18:13;;;;;;;6.40;3.80;;;;;;;29.78;28.23;99757.52;78325;1301;3026872;-72
2023/06/22 17:20:40;;;;;;;6.70;5.00;;;;;;;29.61;28.46;99757.26;79750;1304;3013349;-69
2023/06/22 17:23:07;;;;;;;8.00;4.30;;;;;;;29.44;28.61;99756.20;80191;1298;3012076;-75
2023/06/22 17:25:35;;;;;;;10.30;3.00;;;;;;;29.22;28.92;99753.54;78685;1301;3052565;-73
2023/06/22 17:28:02;;;;;;;4.90;3.80;;;;;;;29.00;29.58;99753.36;79775;1300;3013620;-67
2023/06/22 17:30:29;;;;;;;5.20;3.50;;;;;;;28.82;30.06;99754.95;79902;1298;3011417;-75
2023/06/22 17:32:57;;;;;;;9.50;3.70;;;;;;;28.62;30.71;99750.16;78708;1298;3049653;-72
2023/06/22 17:35:24;;;;;;;6.40;3.80;;;;;;;28.47;30.93;99749.81;81763;1298;3013337;-72
2023/06/22 17:37:55;;;;;;;8.90;3.90;;;;;;;28.35;31.10;99749.58;81285;1298;3013087;-70
2023/06/22 17:40:24;;;;;;;10.30;4.30;;;;;;;28.22;31.50;99749.32;80554;1301;3052595;-76
2023/06/22 17:42:51;;;;;;;6.70;4.80;;;;;;;28.09;31.79;99756.52;81406;1298;3011658;-72
2023/06/22 17:45:21;;;;;;;12.80;6.20;;;;;;;27.91;32.39;99757.77;81424;1298;3011344;-75
2023/06/22 17:47:52;;;;;;;9.30;5.10;;;;;;;27.78;32.84;99755.35;78216;1301;3051728;-73
2023/06/22 17:50:21;;;;;;;11.00;5.20;;;;;;;27.64;33.21;99758.36;79657;1298;3011361;-76
2023/06/22 17:52:54;;;;;;;7.80;4.50;;;;;;;27.53;33.43;99760.33;78617;1298;3050000;-73
2023/06/22 17:55:22;;;;;;;7.80;4.00;;;;;;;27.42;33.66;99763.70;79645;1298;3011720;-73
2023/06/22 17:57:56;;;;;;;7.00;4.10;;;;;;;27.32;34.01;99766.05;78581;1301;3052411;-74
2023/06/22 18:00:26;;;;;;;12.50;4.50;;;;;;;27.19;34.20;99766.06;79230;1298;3011612;-72
2023/06/22 18:02:53;;;;;;;8.70;3.80;;;;;;;27.04;34.47;99765.72;79862;1298;3013270;-74
2023/06/22 18:05:33;;;;;;;8.20;4.20;;;;;;;26.96;34.30;99764.45;79656;1301;3011736;-69
2023/06/22 18:08:05;;;;;;;6.20;3.70;;;;;;;26.83;34.54;99766.35;78181;1301;3051350;-71
2023/06/22 18:10:34;;;;;;;5.70;3.90;;;;;;;26.75;34.21;99769.58;79426;1298;3013549;-71
2023/06/22 18:13:04;;;;;;;5.10;3.60;;;;;;;26.64;34.49;99771.64;78475;1301;3049836;-74
2023/06/22 18:15:32;;;;;;;6.50;3.60;;;;;;;26.54;34.60;99771.20;79649;1298;3013956;-72
2023/06/22 18:17:58;;;;;;;6.40;4.20;;;;;;;26.46;34.71;99774.92;79820;1298;3011910;-72
2023/06/22 18:20:26;;;;;;;8.60;4.50;;;;;;;26.36;34.70;99775.89;78239;1298;3050669;-76
2023/06/22 18:22:53;;;;;;;6.70;4.20;;;;;;;26.31;34.71;99780.98;79573;1301;3013504;-73
2023/06/22 18:25:20;;;;;;;6.50;3.70;;;;;;;26.20;34.15;99779.46;79442;1299;3014028;-72
2023/06/22 18:27:48;;;;;;;4.70;3.30;;;;;;;26.16;33.77;99776.99;78239;1299;3026792;-74
2023/06/22 18:30:15;;;;;;;5.50;3.40;;;;;;;26.01;33.79;99777.15;79525;1298;3013500;-73
2023/06/22 18:32:42;;;;;;;5.10;2.80;;;;;;;25.88;34.09;99780.95;79687;1298;3013567;-70
2023/06/22 18:35:10;;;;;;;4.80;3.30;;;;;;;25.78;34.34;99782.13;78539;1298;3050883;-73
2023/06/22 18:37:39;;;;;;;5.70;3.10;;;;;;;25.69;34.35;99781.96;79865;1298;3013306;-69
2023/06/22 18:40:07;;;;;;;7.60;3.60;;;;;;;25.60;34.48;99775.39;79768;1298;3011563;-73
2023/06/22 18:42:42;;;;;;;7.70;3.40;;;;;;;25.55;34.86;99771.46;78587;1297;3050939;-74
2023/06/22 18:45:25;;;;;;;7.70;3.30;;;;;;;25.48;34.97;99765.98;79400;1298;3012038;-75
2023/06/22 18:48:03;;;;;;;;;;;;;;;25.28;35.82;99772.27;78431;1298;3053031;-72
2023/06/22 18:50:41;;;;;;;5.70;3.10;;;;;;;25.03;36.49;99767.91;78683;1301;3053988;-74
2023/06/22 18:53:26;;;;;;;8.50;3.50;;;;;;;24.94;36.75;99773.23;78370;1298;3070227;-68
2023/06/22 18:56:13;;;;;;;5.00;2.90;;;;;;;24.90;36.82;99775.96;78526;1297;3050774;-74
2023/06/22 18:58:41;;;;;;;8.10;4.30;;;;;;;24.83;36.80;99778.29;78396;1298;3056669;-67
2023/06/22 19:01:15;;;;;;;9.40;4.00;;;;;;;24.80;36.80;99779.52;79750;1298;3018607;-68
2023/06/22 19:03:44;;;;;;;5.00;3.20;;;;;;;24.71;37.12;99774.48;78742;1298;3051456;-69
2023/06/22 19:06:11;;;;;;;6.50;3.20;;;;;;;24.55;37.43;99773.66;80009;1301;3011700;-72
2023/06/22 19:09:13;;;;;;;5.80;2.90;;;;;;;24.53;37.69;99775.77;80206;1298;3011615;-65
2023/06/22 19:11:42;;;;;;;8.40;3.50;;;;;;;24.45;37.93;99773.65;78633;1298;3051826;-71
2023/06/22 19:14:09;;;;;;;4.20;3.00;;;;;;;24.36;38.04;99773.20;79859;1298;3013529;-71
2023/06/22 19:16:35;;;;;;;8.60;3.20;;;;;;;24.33;37.99;99772.60;80141;1298;3011899;-72
2023/06/22 19:19:13;;;;;;;5.40;3.00;;;;;;;24.29;37.98;99776.45;78844;1302;3025904;-74
2023/06/22 19:21:41;;;;;;;6.20;3.00;;;;;;;24.29;37.96;99777.63;78671;1298;3052719;-75
2023/06/22 19:24:08;;;;;;;9.70;2.90;;;;;;;24.24;37.98;99777.42;79786;1298;3018650;-73
2023/06/22 19:26:35;;;;;;;9.30;3.20;;;;;;;24.18;37.88;99774.30;79788;1297;3011574;-74
2023/06/22 19:29:14;;;;;;;7.20;3.40;;;;;;;24.09;38.18;99772.71;78508;1299;3057386;-76
2023/06/22 19:31:42;;;;;;;5.00;2.90;;;;;;;24.04;38.17;99768.11;78440;1301;3049806;-67
2023/06/22 19:34:10;;;;;;;6.70;3.00;;;;;;;23.96;38.28;99771.57;79923;1299;3019122;-71
2023/06/22 19:36:36;;;;;;;4.30;3.00;;;;;;;23.90;38.45;99766.56;80174;1298;3013067;-73
2023/06/22 19:39:04;;;;;;;4.50;2.60;;;;;;;23.86;38.26;99763.04;78675;1298;3026572;-72
2023/06/22 19:41:32;;;;;;;5.90;3.10;;;;;;;23.79;38.18;99762.88;79897;1298;3018869;-71
2023/06/22 19:43:58;;;;;;;4.40;2.90;;;;;;;23.65;38.34;99761.56;79925;1298;3012951;-73
2023/06/22 19:46:30;;;;;;;4.80;3.10;;;;;;;23.65;38.35;99760.39;78698;1298;3025716;-73
2023/06/22 19:48:58;;;;;;;5.00;2.90;;;;;;;23.60;38.56;99758.06;80098;1297;3011772;-72
2023/06/22 19:51:35;;;;;;;4.30;3.10;;;;;;;23.53;38.83;99764.17;78652;1298;3049767;-74
2023/06/22 19:54:06;;;;;;;4.80;2.90;;;;;;;23.53;38.80;99769.44;78509;1298;3053259;-71
2023/06/22 19:56:35;;;;;;;4.90;2.60;;;;;;;23.52;38.64;99771.79;79922;1300;3013444;-73
2023/06/22 19:59:10;;;;;;;7.30;2.90;;;;;;;23.42;38.82;99770.59;78639;1301;3068703;-72
2023/06/22 20:01:40;;;;;;;4.40;2.90;;;;;;;23.37;39.02;99769.94;79332;1298;3011960;-71
2023/06/22 20:04:07;;;;;;;7.50;3.20;;;;;;;23.34;38.84;99768.25;80002;1298;3012829;-70
2023/06/22 20:06:35;;;;;;;7.30;3.40;;;;;;;23.25;39.62;99769.23;79852;1297;3013626;-71
2023/06/22 20:09:05;;;;;;;6.50;3.50;;;;;;;23.18;40.36;99770.74;78536;1298;3052316;-73
2023/06/22 20:11:33;;;;;;;8.20;3.40;;;;;;;23.09;40.93;99774.14;79848;1296;3011686;-72
2023/06/22 20:14:02;;;;;;;7.10;3.20;;;;;;;22.94;41.19;99769.86;79255;1301;3013701;-71
2023/06/22 20:16:29;;;;;;;6.70;3.20;;;;;;;22.91;41.08;99768.98;79897;1301;3013280;-73
2023/06/22 20:19:11;;;;;;;5.70;3.20;;;;;;;22.81;41.16;99769.68;79734;1300;3011559;-72
2023/06/22 20:21:39;;;;;;;4.70;3.10;;;;;;;22.80;41.48;99769.91;78576;1297;3055946;-74
2023/06/22 20:24:06;;;;;;;5.80;3.50;;;;;;;22.69;41.80;99779.99;79753;1299;3013115;-74
2023/06/22 20:26:43;;;;;;;6.30;3.10;;;;;;;22.68;41.68;99781.91;79652;1298;3011320;-72
2023/06/22 20:29:27;;;;;;;3.70;2.80;;;;;;;22.69;41.50;99782.24;78497;1301;3052592;-71
2023/06/22 20:32:12;;;;;;;6.80;2.90;;;;;;;22.56;41.71;99782.79;78581;1301;3053157;-71
2023/06/22 20:34:44;;;;;;;4.50;3.00;;;;;;;22.43;42.45;99775.99;78672;1297;3071794;-73
2023/06/22 20:37:11;;;;;;;8.20;3.70;;;;;;;22.32;43.09;99772.02;79559;1298;3013020;-75
2023/06/22 20:39:39;;;;;;;5.90;3.20;;;;;;;22.16;43.39;99771.77;78605;1299;3026587;-73
2023/06/22 20:42:06;;;;;;;7.20;3.10;;;;;;;22.13;43.41;99773.77;79665;1298;3012674;-68
2023/06/22 20:44:33;;;;;;;5.40;3.00;;;;;;;22.02;43.93;99776.09;79521;1299;3011859;-72
2023/06/22 20:47:03;;;;;;;7.80;3.00;;;;;;;21.99;43.71;99774.11;78600;1298;3053759;-72
2023/06/22 20:49:30;;;;;;;7.30;3.50;;;;;;;21.93;43.64;99770.80;79856;1298;3013527;-68
2023/06/22 20:51:57;;;;;;;4.30;3.20;;;;;;;21.86;43.76;99767.65;79803;1298;3011534;-73
2023/06/22 20:54:25;;;;;;;5.80;3.20;;;;;;;21.72;44.18;99769.61;78530;1299;3056295;-75
2023/06/22 20:56:52;;;;;;;6.30;3.80;;;;;;;21.63;44.31;99774.13;79613;1298;3013562;-74
2023/06/22 20:59:18;;;;;;;7.10;4.00;;;;;;;21.53;44.41;99775.42;80063;1301;3012005;-75
2023/06/22 21:01:46;;;;;;;6.50;3.40;;;;;;;21.52;44.38;99773.94;78611;1298;3025220;-75
2023/06/22 21:04:13;;;;;;;6.20;3.10;;;;;;;21.45;44.23;99773.85;80064;1298;3013046;-73
2023/06/22 21:06:39;;;;;;;5.10;3.70;;;;;;;21.42;44.66;99774.20;80078;1298;3011465;-72
2023/06/22 21:09:07;;;;;;;5.40;3.50;;;;;;;21.34;44.75;99778.73;78492;1301;3030300;-72
2023/06/22 21:11:34;;;;;;;5.80;3.20;;;;;;;21.35;44.90;99780.77;79755;1299;3013412;-73
2023/06/22 21:14:00;;;;;;;7.30;3.60;;;;;;;21.28;44.93;99780.04;79653;1298;3012958;-73
2023/06/22 21:16:28;;;;;;;5.90;3.50;;;;;;;21.20;45.34;99777.54;78378;1301;3026607;-74
2023/06/22 21:18:54;;;;;;;5.50;3.20;;;;;;;21.13;45.14;99773.02;79548;1298;3012474;-73
2023/06/22 21:21:21;;;;;;;5.80;3.10;;;;;;;21.14;44.51;99769.00;79556;1299;3013665;-74